Pagina principale
METAR-TAF:

METAR-TAF

Aeroporti :

Taranto, Italia

Aeroporto di Taranto-Grottaglie

latitudine: 40-31N, longitudine: 017-24E, altezza: 64 m

Osservazione

Il bollettino è stato emesso 1 ora e 8 minuti fa, alle 14:50 UTC
Vento 2 kt da ovest/nord-ovest
Temperature 16°C
Umidità 55%
Pressione 1011 hPa
Visibilità 10 km o più
nessuna nube inferiore a 1500 m e nessun cumulonembo

METAR: LIBG 191450Z 29002KT CAVOK 16/07 Q1011

Ora: 16:58 (15:58 UTC)

Previsione

Il bollettino è stato emesso 1 ora e 58 minuti fa, alle 14:00 UTC
Previsione valida dal 19 alle 15 UTC al 19 alle 24 UTC
Vento 5 kt da direzioni variabili
Visibilità 10 km o più
Poco nuvoloso ad un'altezza di 4000 ft

TAF: LIBG 191400Z 1915/1924 VRB05KT 9999 FEW040

Osservazioni e previsioni meteorologiche di più di 4000 aeroporti (messaggi METAR e TAF).

Le stazioni disponibili sono rappresentate dai dischi gialli e rossi sulla carta.

Puntare il mouse per vedere il nome della stazione.

Clicca sopra per visualizzare le osservazioni e previsioni meteorologiche.

Per cambiare la mappa : fare clic sui pulsanti verdi con una croce nera per ingrandire, il pulsante verde con un trattino per diminuire, o sulla freccia verde per le mappe adiacenti.


METAR-TAF: